Time;durP1;ratioP1;P1;durP2;ratioP2;P2;SDS_P1;SDS_P2;PMS_P1;PMS_P2;Temp;Humidity;BMP_temperature;BMP_pressure;BME280_temperature;BME280_humidity;BME280_pressure;Samples;Min_cycle;Max_cycle;Signal;HPM_P1;HPM_P2
2020/12/05 00:01:27;;;;;;;108.93;43.63;;;;;;;3.55;80.49;100801.59;5031650;28;20049;-67
2020/12/05 00:03:52;;;;;;;107.37;42.77;;;;;;;3.50;81.16;100813.16;5031625;28;20515;-68
2020/12/05 00:06:22;;;;;;;100.17;42.63;;;;;;;3.34;81.12;100806.06;5030909;28;20030;-71
2020/12/05 00:08:51;;;;;;;116.43;43.30;;;;;;;3.24;82.19;100791.78;5044613;28;20582;-70
2020/12/05 00:11:28;;;;;;;120.00;44.78;;;;;;;3.19;82.49;100790.53;5045062;28;20046;-70
2020/12/05 00:13:54;;;;;;;115.17;43.40;;;;;;;3.22;82.96;100804.41;5024493;28;20053;-70
2020/12/05 00:16:20;;;;;;;120.63;44.53;;;;;;;3.25;82.84;100806.28;5030389;28;20059;-70
2020/12/05 00:18:46;;;;;;;117.23;45.07;;;;;;;3.30;82.95;100807.53;5031495;28;20056;-69
2020/12/05 00:21:15;;;;;;;113.33;43.57;;;;;;;3.21;83.00;100809.41;5031678;28;20058;-69
2020/12/05 00:23:41;;;;;;;120.63;45.85;;;;;;;2.84;83.63;100784.69;5031017;28;20044;-69
2020/12/05 00:26:06;;;;;;;119.27;44.77;;;;;;;2.84;84.76;100824.59;5031387;28;20400;-69
2020/12/05 00:28:32;;;;;;;121.67;46.73;;;;;;;2.71;85.85;100831.31;5028448;28;20045;-64
2020/12/05 00:30:57;;;;;;;139.57;48.93;;;;;;;2.69;86.06;100834.53;5030786;28;20028;-67
2020/12/05 00:33:23;;;;;;;141.57;46.97;;;;;;;2.68;86.31;100833.66;5030664;28;20029;-68
2020/12/05 00:35:48;;;;;;;136.80;50.13;;;;;;;2.74;86.60;100835.75;5029764;28;20052;-64
2020/12/05 00:38:14;;;;;;;151.77;51.63;;;;;;;2.66;87.09;100835.19;5016517;28;20026;-65
2020/12/05 00:40:39;;;;;;;143.70;50.53;;;;;;;2.54;87.08;100803.69;5014888;28;20041;-69
2020/12/05 00:43:05;;;;;;;158.10;50.30;;;;;;;2.73;86.87;100834.00;5012798;28;20397;-70
2020/12/05 00:45:30;;;;;;;155.10;51.37;;;;;;;2.60;87.33;100814.34;5012451;28;20473;-68
2020/12/05 00:47:56;;;;;;;154.80;50.30;;;;;;;2.85;87.25;100836.56;5019721;28;20048;-69
2020/12/05 00:50:21;;;;;;;167.27;49.60;;;;;;;2.97;86.54;100837.47;5030376;28;20043;-70
2020/12/05 00:52:46;;;;;;;150.53;48.83;;;;;;;3.04;86.60;100834.59;5031123;28;20072;-67
2020/12/05 00:55:12;;;;;;;183.80;52.47;;;;;;;3.15;86.64;100822.59;5031575;28;20021;-71
2020/12/05 00:57:37;;;;;;;190.80;52.20;;;;;;;3.28;86.14;100814.19;5031301;28;20021;-69
2020/12/05 01:00:06;;;;;;;187.50;51.67;;;;;;;3.42;85.70;100825.38;5030993;28;20022;-68
2020/12/05 01:02:31;;;;;;;182.63;48.93;;;;;;;3.47;85.08;100824.03;5031256;28;20116;-69
2020/12/05 01:04:57;;;;;;;211.93;52.33;;;;;;;3.48;85.39;100828.38;5029703;28;20132;-66
2020/12/05 01:07:25;;;;;;;195.47;54.03;;;;;;;3.48;85.20;100827.50;5031134;28;20072;-65
2020/12/05 01:09:52;;;;;;;152.93;46.67;;;;;;;3.36;85.26;100823.25;5031359;28;20386;-70
2020/12/05 01:12:17;;;;;;;202.40;51.97;;;;;;;3.24;85.68;100832.63;5031633;28;20154;-68
2020/12/05 01:14:43;;;;;;;245.57;52.43;;;;;;;3.21;85.88;100825.59;5030973;28;20575;-70
2020/12/05 01:17:09;;;;;;;222.63;51.97;;;;;;;3.18;85.84;100802.44;5046642;28;20067;-67
2020/12/05 01:19:34;;;;;;;227.40;52.73;;;;;;;3.42;85.62;100833.03;5012939;28;20124;-66
2020/12/05 01:22:00;;;;;;;263.30;51.97;;;;;;;3.26;85.74;100800.41;5019710;28;20032;-70
2020/12/05 01:24:25;;;;;;;266.60;53.60;;;;;;;3.43;85.79;100828.81;5030242;28;20103;-71
2020/12/05 01:26:51;;;;;;;260.07;56.90;;;;;;;3.59;85.94;100849.56;5029892;28;20460;-65
2020/12/05 01:29:16;;;;;;;263.97;52.67;;;;;;;3.56;86.24;100851.88;5030773;28;20026;-69
2020/12/05 01:31:41;;;;;;;359.70;53.97;;;;;;;3.55;85.97;100852.66;5030973;28;20029;-71
2020/12/05 01:34:07;;;;;;;274.10;52.63;;;;;;;3.59;86.18;100852.13;5031161;28;20025;-73
2020/12/05 01:36:33;;;;;;;279.87;50.27;;;;;;;3.58;86.11;100845.22;5030510;28;20033;-76
2020/12/05 01:38:59;;;;;;;259.40;51.03;;;;;;;3.64;86.21;100845.66;5030236;28;20028;-74
2020/12/05 01:41:24;;;;;;;323.63;54.10;;;;;;;3.70;86.25;100856.31;5030482;28;20037;-76
2020/12/05 01:43:50;;;;;;;256.13;53.70;;;;;;;3.79;86.42;100850.06;5027676;28;20030;-73
2020/12/05 01:46:32;;;;;;;377.15;57.83;;;;;;;3.68;85.96;100816.13;5025390;28;20037;-71
2020/12/05 01:48:58;;;;;;;297.83;52.70;;;;;;;3.85;86.01;100847.94;5030325;28;20022;-70
2020/12/05 01:51:23;;;;;;;294.13;52.17;;;;;;;3.95;85.55;100842.72;5030717;28;20095;-69
2020/12/05 01:53:49;;;;;;;258.67;50.83;;;;;;;3.78;85.61;100804.91;5030742;28;20021;-65
2020/12/05 01:56:16;;;;;;;327.87;51.23;;;;;;;4.02;85.24;100850.00;5030441;28;20029;-70
2020/12/05 01:58:42;;;;;;;322.17;51.30;;;;;;;4.01;85.37;100850.81;5030831;28;20036;-69
2020/12/05 02:01:12;;;;;;;426.13;52.50;;;;;;;4.03;85.40;100851.78;5030832;28;20033;-68
2020/12/05 02:03:37;;;;;;;;;;;;;;;4.05;85.34;100849.34;5031153;28;20424;-69
2020/12/05 02:06:27;;;;;;;241.43;45.35;;;;;;;3.90;85.62;100849.16;5030749;28;19947;-70
2020/12/05 02:09:14;;;;;;;299.60;47.67;;;;;;;3.66;86.09;100849.19;5028753;28;20512;-67
2020/12/05 02:11:41;;;;;;;449.00;54.23;;;;;;;3.61;86.63;100819.91;5030855;28;20061;-68
2020/12/05 02:14:11;;;;;;;426.23;55.07;;;;;;;3.80;86.69;100849.28;5030857;28;20029;-67
2020/12/05 02:16:39;;;;;;;336.45;52.38;;;;;;;3.76;86.50;100844.75;5031030;28;20108;-66
2020/12/05 02:19:14;;;;;;;346.77;57.83;;;;;;;3.90;86.52;100859.38;5030949;28;20580;-69
2020/12/05 02:21:42;;;;;;;307.35;55.50;;;;;;;3.98;86.20;100859.91;5030089;28;20022;-66
2020/12/05 02:24:09;;;;;;;207.13;48.72;;;;;;;3.88;86.08;100833.72;5031172;28;20035;-66
2020/12/05 02:26:35;;;;;;;381.20;57.53;;;;;;;4.07;85.82;100852.88;5031098;28;20030;-66
2020/12/05 02:29:00;;;;;;;324.42;52.80;;;;;;;4.09;85.83;100855.53;5031015;28;20018;-66
2020/12/05 02:31:26;;;;;;;368.67;60.00;;;;;;;4.07;86.02;100852.88;5030825;28;20030;-65
2020/12/05 02:33:52;;;;;;;364.93;50.43;;;;;;;4.03;85.87;100850.91;5030978;28;20025;-65
2020/12/05 02:36:18;;;;;;;296.17;50.55;;;;;;;3.90;86.45;100836.41;5031143;28;20099;-66
2020/12/05 02:39:00;;;;;;;307.13;50.87;;;;;;;3.92;86.28;100849.25;5030981;28;20052;-66
2020/12/05 02:41:26;;;;;;;351.67;54.63;;;;;;;3.84;86.86;100849.63;5030885;28;20104;-68
2020/12/05 02:43:52;;;;;;;382.97;55.87;;;;;;;3.83;87.37;100852.06;5030842;28;20033;-66
2020/12/05 02:46:18;;;;;;;343.50;53.67;;;;;;;3.70;87.20;100819.66;5030564;28;20044;-66
2020/12/05 02:48:43;;;;;;;442.98;55.90;;;;;;;3.89;87.35;100834.63;5061996;28;20037;-70
2020/12/05 02:51:09;;;;;;;306.57;48.03;;;;;;;3.98;87.07;100845.47;5030969;28;20030;-66
2020/12/05 02:53:34;;;;;;;289.57;50.63;;;;;;;3.97;86.87;100848.78;5066557;28;20060;-66
2020/12/05 02:56:00;;;;;;;319.88;52.22;;;;;;;3.80;86.39;100821.19;5034303;28;20044;-67
2020/12/05 02:58:25;;;;;;;286.48;52.00;;;;;;;4.09;86.50;100851.31;5034363;28;20025;-67
2020/12/05 03:00:51;;;;;;;267.67;51.42;;;;;;;4.18;86.28;100856.19;5028387;28;20018;-66
2020/12/05 03:03:16;;;;;;;356.65;54.20;;;;;;;4.23;85.81;100847.16;5027828;28;20021;-65
2020/12/05 03:05:42;;;;;;;305.48;51.08;;;;;;;4.25;85.51;100842.13;5034500;28;20140;-67
2020/12/05 03:08:07;;;;;;;311.40;50.70;;;;;;;4.29;85.19;100845.03;5014804;28;20124;-65
2020/12/05 03:10:33;;;;;;;425.15;51.78;;;;;;;4.36;85.14;100852.31;5014468;28;20113;-66
2020/12/05 03:12:58;;;;;;;320.73;50.58;;;;;;;4.30;84.84;100864.69;5014599;28;20038;-65
2020/12/05 03:15:24;;;;;;;243.80;48.67;;;;;;;4.20;85.40;100842.72;5014340;28;20030;-65
2020/12/05 03:17:49;;;;;;;277.67;50.90;;;;;;;4.24;85.49;100850.59;5014504;28;20037;-65
2020/12/05 03:20:16;;;;;;;229.43;49.35;;;;;;;4.21;85.47;100848.72;5014202;28;20052;-67
2020/12/05 03:22:41;;;;;;;213.50;48.75;;;;;;;4.14;85.43;100839.75;5014370;28;20065;-69
2020/12/05 03:25:07;;;;;;;280.13;48.03;;;;;;;4.15;85.54;100845.72;5014350;28;20512;-68
2020/12/05 03:27:32;;;;;;;199.73;47.47;;;;;;;4.12;85.65;100848.09;5014044;28;20029;-66
2020/12/05 03:29:58;;;;;;;219.50;47.17;;;;;;;4.14;86.10;100846.53;5013725;28;20037;-68
2020/12/05 03:32:30;;;;;;;284.40;48.23;;;;;;;4.12;86.03;100850.66;5014313;28;20026;-68
2020/12/05 03:34:55;;;;;;;217.07;49.03;;;;;;;4.18;86.12;100840.84;5013902;28;20390;-65
2020/12/05 03:37:24;;;;;;;210.10;47.63;;;;;;;4.26;85.61;100842.28;5026722;28;20030;-66
2020/12/05 03:39:50;;;;;;;227.00;47.25;;;;;;;4.24;85.60;100838.72;5033568;28;20049;-66
2020/12/05 03:42:16;;;;;;;251.90;47.47;;;;;;;4.24;85.05;100828.50;5033713;28;20028;-70
2020/12/05 03:44:41;;;;;;;193.55;45.03;;;;;;;4.20;84.96;100814.63;5033593;28;20033;-66
2020/12/05 03:47:07;;;;;;;278.75;48.83;;;;;;;4.33;85.08;100854.66;5033579;28;20476;-66
2020/12/05 03:49:33;;;;;;;203.55;46.85;;;;;;;4.28;85.45;100858.56;5033515;28;20095;-66
2020/12/05 03:52:02;;;;;;;232.98;47.00;;;;;;;4.24;85.51;100851.50;5033536;28;20029;-66
2020/12/05 03:54:28;;;;;;;;;;;;;;;4.25;85.36;100847.25;5034010;28;20463;-67
2020/12/05 03:56:53;;;;;;;244.38;47.00;;;;;;;4.20;85.29;100852.94;5033225;28;19940;-67
2020/12/05 03:59:19;;;;;;;260.70;47.65;;;;;;;4.20;85.80;100852.06;5024286;28;20026;-67
2020/12/05 04:01:44;;;;;;;222.65;45.17;;;;;;;4.21;85.70;100854.72;5022710;28;20030;-68
2020/12/05 04:04:10;;;;;;;244.55;47.58;;;;;;;4.07;85.53;100859.66;5063233;28;20041;-69
2020/12/05 04:06:36;;;;;;;245.27;52.90;;;;;;;3.77;86.79;100867.84;5032911;28;20084;-69
2020/12/05 04:09:03;;;;;;;244.35;53.40;;;;;;;3.58;88.22;100869.84;5033011;28;20033;-66
2020/12/05 04:11:28;;;;;;;243.07;51.47;;;;;;;3.55;88.61;100875.63;5032850;28;20045;-69
2020/12/05 04:13:54;;;;;;;222.07;52.13;;;;;;;3.52;88.93;100885.63;5032686;28;20029;-66
2020/12/05 04:16:19;;;;;;;267.43;49.17;;;;;;;3.48;89.50;100878.53;5032825;28;20033;-67
2020/12/05 04:18:45;;;;;;;191.70;50.10;;;;;;;3.52;89.28;100870.31;5032797;28;20108;-66
2020/12/05 04:21:11;;;;;;;219.67;52.53;;;;;;;3.58;89.46;100864.75;5032994;28;20026;-67
2020/12/05 04:23:36;;;;;;;214.03;53.17;;;;;;;3.63;89.43;100858.31;5032881;28;20029;-67
2020/12/05 04:26:02;;;;;;;191.00;50.67;;;;;;;3.82;88.83;100875.81;5032705;28;20033;-66
2020/12/05 04:28:27;;;;;;;158.93;50.10;;;;;;;3.86;88.06;100875.25;5032729;28;20057;-72
2020/12/05 04:30:53;;;;;;;204.50;53.93;;;;;;;3.81;88.10;100854.50;5032798;28;20034;-68
2020/12/05 04:33:18;;;;;;;156.48;47.80;;;;;;;4.01;87.24;100881.47;5032701;28;20029;-68
2020/12/05 04:35:43;;;;;;;171.03;52.70;;;;;;;4.12;87.05;100879.63;5032641;28;20113;-68
2020/12/05 04:38:09;;;;;;;176.10;50.28;;;;;;;4.21;87.10;100885.41;5032429;28;20075;-68
2020/12/05 04:40:34;;;;;;;182.55;49.00;;;;;;;4.25;86.50;100877.91;5032675;28;20503;-67
2020/12/05 04:43:01;;;;;;;193.38;51.83;;;;;;;4.18;86.71;100862.16;5032106;28;20021;-67
2020/12/05 04:45:29;;;;;;;160.10;50.10;;;;;;;4.30;86.12;100872.34;5032555;28;20539;-68
2020/12/05 04:47:56;;;;;;;157.63;49.65;;;;;;;4.35;85.40;100878.66;5032522;28;20115;-68
2020/12/05 04:50:25;;;;;;;173.55;50.25;;;;;;;4.33;85.50;100879.34;5028884;28;20041;-69
2020/12/05 04:52:52;;;;;;;140.97;45.03;;;;;;;4.40;85.45;100878.09;5030646;28;20041;-68
2020/12/05 04:55:28;;;;;;;158.02;47.67;;;;;;;4.42;85.85;100879.09;5030735;28;20326;-67
2020/12/05 04:57:58;;;;;;;153.50;47.17;;;;;;;4.47;85.39;100886.28;5012665;28;20049;-68
2020/12/05 05:00:25;;;;;;;151.40;45.92;;;;;;;4.50;85.23;100890.72;5014394;28;20029;-68
2020/12/05 05:02:56;;;;;;;141.73;44.50;;;;;;;4.49;84.94;100879.59;5032302;28;20060;-68
2020/12/05 05:05:23;;;;;;;139.32;43.25;;;;;;;4.56;84.66;100888.59;5032047;28;20029;-68
2020/12/05 05:07:53;;;;;;;127.68;43.33;;;;;;;4.52;84.45;100873.81;5032044;28;20041;-69
2020/12/05 05:10:26;;;;;;;137.43;43.92;;;;;;;4.59;84.69;100875.13;5031864;28;20092;-70
2020/12/05 05:13:03;;;;;;;149.15;44.92;;;;;;;4.57;84.41;100887.78;5032015;28;20116;-68
2020/12/05 05:15:30;;;;;;;150.38;45.97;;;;;;;4.57;84.61;100892.91;5031178;28;20033;-68
2020/12/05 05:18:02;;;;;;;152.05;46.45;;;;;;;4.48;84.95;100884.63;5031685;28;20029;-68
2020/12/05 05:20:35;;;;;;;158.13;47.72;;;;;;;4.34;85.87;100893.91;5031591;28;20108;-68
2020/12/05 05:23:17;;;;;;;162.38;46.75;;;;;;;4.06;87.50;100891.97;5032048;28;20382;-68
2020/12/05 05:25:57;;;;;;;187.50;46.80;;;;;;;4.17;87.14;100910.63;5031239;28;20511;-68
2020/12/05 05:28:26;;;;;;;191.93;51.53;;;;;;;4.20;87.41;100905.75;5031573;28;20044;-69
2020/12/05 05:30:59;;;;;;;211.07;55.17;;;;;;;4.19;87.52;100904.84;5031373;28;20055;-66
2020/12/05 05:33:25;;;;;;;207.48;53.20;;;;;;;4.20;87.62;100905.75;5031972;28;20063;-68
2020/12/05 05:35:51;;;;;;;249.55;58.30;;;;;;;4.21;87.69;100900.72;5031681;28;20029;-67
2020/12/05 05:38:22;;;;;;;202.25;53.95;;;;;;;4.28;87.41;100891.81;5031921;28;20040;-68
2020/12/05 05:40:50;;;;;;;299.00;56.83;;;;;;;4.34;87.56;100894.78;5031670;28;20404;-68
2020/12/05 05:43:18;;;;;;;308.38;58.80;;;;;;;4.38;87.53;100898.44;5031592;28;20116;-70
2020/12/05 05:45:44;;;;;;;389.52;64.80;;;;;;;4.41;87.37;100901.22;5044354;28;20038;-68
2020/12/05 05:48:10;;;;;;;244.32;59.72;;;;;;;4.37;87.13;100882.22;5042550;28;20038;-68
2020/12/05 05:50:36;;;;;;;300.58;61.67;;;;;;;4.45;86.97;100886.94;5011450;28;20022;-67
2020/12/05 05:53:07;;;;;;;295.10;56.47;;;;;;;4.59;86.94;100890.47;5011570;28;20117;-68
2020/12/05 05:55:48;;;;;;;229.13;55.72;;;;;;;4.59;86.81;100888.78;5011503;28;20036;-68
2020/12/05 05:58:16;;;;;;;248.85;53.97;;;;;;;4.65;86.72;100896.00;5009601;28;20033;-68
2020/12/05 06:00:44;;;;;;;405.45;60.70;;;;;;;4.55;86.81;100886.81;5011796;28;20025;-67
2020/12/05 06:03:27;;;;;;;300.60;56.60;;;;;;;4.55;86.94;100909.81;5011728;28;20026;-68
2020/12/05 06:05:55;;;;;;;369.42;53.55;;;;;;;4.53;87.25;100902.03;5011856;28;20111;-68
2020/12/05 06:08:24;;;;;;;363.52;94.55;;;;;;;4.57;87.77;100898.00;5011595;28;20065;-68
2020/12/05 06:11:07;;;;;;;365.75;103.10;;;;;;;4.58;87.95;100894.69;5011309;28;20026;-68
2020/12/05 06:13:33;;;;;;;427.27;133.93;;;;;;;4.66;87.79;100908.88;5011421;28;20033;-68
2020/12/05 06:16:00;;;;;;;429.77;86.00;;;;;;;4.51;87.59;100872.94;5011435;28;20022;-66
2020/12/05 06:18:26;;;;;;;320.58;65.13;;;;;;;4.74;87.43;100911.94;5026796;28;20113;-68
2020/12/05 06:20:52;;;;;;;314.58;68.65;;;;;;;4.78;87.46;100907.94;5016382;28;20042;-68
2020/12/05 06:23:47;;;;;;;375.55;64.78;;;;;;;4.78;87.09;100902.81;5011735;28;20062;-70
2020/12/05 06:26:18;;;;;;;325.60;62.03;;;;;;;4.74;87.21;100918.75;5011985;28;20470;-68
2020/12/05 06:28:45;;;;;;;297.08;61.72;;;;;;;4.75;87.16;100923.06;5015299;28;20076;-68
2020/12/05 06:31:10;;;;;;;308.75;61.83;;;;;;;4.79;87.00;100920.81;5014987;28;20041;-69
2020/12/05 06:33:45;;;;;;;296.38;61.97;;;;;;;4.79;87.06;100919.94;5019409;28;20037;-68
2020/12/05 06:36:28;;;;;;;415.83;68.53;;;;;;;4.81;87.02;100920.91;5034702;28;20408;-71
2020/12/05 06:39:06;;;;;;;360.73;61.40;;;;;;;4.77;86.97;100912.19;5034112;28;20090;-68
2020/12/05 06:41:37;;;;;;;304.83;62.95;;;;;;;4.88;87.05;100909.44;5030657;28;20484;-67
2020/12/05 06:44:12;;;;;;;420.98;69.80;;;;;;;4.94;86.56;100922.66;5034062;28;20026;-67
2020/12/05 06:46:56;;;;;;;283.00;60.60;;;;;;;4.96;86.57;100921.06;5034872;28;20029;-68
2020/12/05 06:49:40;;;;;;;328.63;59.00;;;;;;;4.94;86.49;100918.41;5034476;28;20037;-70
2020/12/05 06:52:24;;;;;;;247.77;53.70;;;;;;;4.94;86.63;100918.41;5034595;28;20060;-67
2020/12/05 06:54:55;;;;;;;454.13;70.70;;;;;;;4.98;86.73;100914.38;5034764;28;20072;-68
2020/12/05 06:57:22;;;;;;;379.83;66.15;;;;;;;5.00;86.52;100916.25;5034766;28;20025;-66
2020/12/05 06:59:48;;;;;;;270.02;62.70;;;;;;;5.03;86.59;100925.81;5034631;28;20119;-68
2020/12/05 07:02:33;;;;;;;270.05;63.38;;;;;;;5.05;86.84;100928.47;5034402;28;20501;-67
2020/12/05 07:05:20;;;;;;;338.65;65.45;;;;;;;5.01;86.56;100928.28;5034322;28;20028;-68
2020/12/05 07:07:58;;;;;;;396.65;64.80;;;;;;;5.00;86.83;100913.69;5034244;28;20508;-68
2020/12/05 07:11:00;;;;;;;373.80;61.95;;;;;;;4.99;87.31;100928.94;5034242;28;20029;-67
2020/12/05 07:13:30;;;;;;;424.80;112.53;;;;;;;4.89;87.49;100937.69;5033998;28;20484;-68
2020/12/05 07:16:21;;;;;;;336.85;73.75;;;;;;;4.96;87.92;100938.97;5034287;28;20475;-68
2020/12/05 07:19:10;;;;;;;298.35;62.30;;;;;;;5.02;87.64;100935.16;5033856;28;20484;-68
2020/12/05 07:21:36;;;;;;;306.92;62.97;;;;;;;4.70;87.82;100880.16;5031481;28;20044;-68
2020/12/05 07:24:01;;;;;;;461.92;94.72;;;;;;;5.09;87.42;100941.56;5031560;28;20034;-68
2020/12/05 07:26:27;;;;;;;334.17;79.80;;;;;;;5.08;87.31;100944.91;5031493;28;20150;-67
2020/12/05 07:28:55;;;;;;;473.15;101.05;;;;;;;5.09;87.75;100943.25;5031721;28;20132;-71
2020/12/05 07:31:23;;;;;;;317.52;75.82;;;;;;;5.06;88.11;100935.34;5031488;28;20115;-67
2020/12/05 07:33:48;;;;;;;427.42;96.90;;;;;;;5.14;88.07;100942.75;5031374;28;20536;-68
2020/12/05 07:36:15;;;;;;;370.85;84.80;;;;;;;5.12;87.93;100941.78;5031388;28;20199;-66
2020/12/05 07:38:42;;;;;;;343.23;73.18;;;;;;;5.14;87.89;100949.56;5031200;28;20065;-69
2020/12/05 07:41:13;;;;;;;352.58;64.72;;;;;;;5.12;88.00;100941.78;5031317;28;20041;-68
2020/12/05 07:43:39;;;;;;;376.02;75.53;;;;;;;5.08;88.39;100937.22;5031383;28;20034;-67
2020/12/05 07:46:08;;;;;;;442.10;69.15;;;;;;;5.21;88.54;100945.72;5031334;28;20034;-70
2020/12/05 07:48:35;;;;;;;399.20;71.80;;;;;;;5.18;88.34;100946.41;5030994;28;20037;-67
2020/12/05 07:51:02;;;;;;;426.83;157.60;;;;;;;5.22;88.59;100952.63;5031042;28;20040;-67
2020/12/05 07:53:30;;;;;;;395.08;109.55;;;;;;;5.28;88.64;100951.38;5032963;28;20041;-67
2020/12/05 07:55:58;;;;;;;328.80;72.85;;;;;;;5.30;88.56;100957.47;5033197;28;20037;-68
2020/12/05 07:58:23;;;;;;;358.20;74.55;;;;;;;5.32;88.50;100961.03;5028864;28;20029;-69
2020/12/05 08:00:53;;;;;;;397.15;80.15;;;;;;;5.40;88.90;100965.78;5022182;28;20117;-68
2020/12/05 08:03:44;;;;;;;;;;;;;;;5.40;88.69;100974.31;5013950;28;20046;-68
2020/12/05 08:07:01;;;;;;;323.33;72.60;;;;;;;5.43;89.08;100977.09;5013559;28;19920;-67
2020/12/05 08:09:31;;;;;;;278.92;70.75;;;;;;;5.40;89.17;100961.53;5030484;28;20084;-71
2020/12/05 08:11:57;;;;;;;361.75;85.00;;;;;;;5.51;88.93;100985.28;5030515;28;20033;-66
2020/12/05 08:14:23;;;;;;;362.77;85.00;;;;;;;5.45;89.02;100983.19;5030801;28;20091;-68
2020/12/05 08:16:53;;;;;;;338.48;84.78;;;;;;;5.32;89.86;100994.31;5030548;28;20033;-67
2020/12/05 08:19:18;;;;;;;339.58;84.60;;;;;;;5.25;90.16;100976.75;5035591;28;20569;-71
2020/12/05 08:21:44;;;;;;;295.42;74.10;;;;;;;5.25;90.50;100968.19;5050303;28;20099;-69
2020/12/05 08:24:10;;;;;;;302.02;80.65;;;;;;;5.40;90.59;100994.81;5050309;28;20103;-66
2020/12/05 08:26:37;;;;;;;238.98;64.03;;;;;;;5.29;91.37;100994.09;5033688;28;20039;-68
2020/12/05 08:29:05;;;;;;;253.77;63.25;;;;;;;5.35;92.04;101004.72;5050460;28;20113;-67
2020/12/05 08:31:31;;;;;;;280.40;74.60;;;;;;;5.43;91.94;100994.13;5050023;28;20131;-68
2020/12/05 08:33:57;;;;;;;223.85;67.50;;;;;;;5.52;92.49;101002.44;5050128;28;20092;-68
2020/12/05 08:36:31;;;;;;;184.85;52.67;;;;;;;5.45;92.58;101001.13;5049765;28;20028;-67
2020/12/05 08:39:02;;;;;;;142.88;45.40;;;;;;;5.32;93.18;101011.31;5050114;28;20488;-68
2020/12/05 08:41:28;;;;;;;152.55;46.38;;;;;;;5.27;94.50;101012.69;5049981;28;20117;-67
2020/12/05 08:43:53;;;;;;;150.63;47.05;;;;;;;5.29;95.05;101013.69;5046963;28;20492;-67
2020/12/05 08:46:22;;;;;;;153.45;52.58;;;;;;;5.30;95.01;101018.03;5032262;28;20452;-67
2020/12/05 08:48:48;;;;;;;162.60;55.03;;;;;;;5.33;95.17;100992.63;5031867;28;20107;-66
2020/12/05 08:51:24;;;;;;;165.43;53.05;;;;;;;5.13;95.36;100947.78;5032148;28;20040;-67
2020/12/05 08:53:50;;;;;;;154.63;46.72;;;;;;;5.45;95.58;100997.69;5032142;28;20473;-68
2020/12/05 08:56:20;;;;;;;164.27;50.55;;;;;;;5.47;95.39;100988.41;5032315;28;20029;-66
2020/12/05 08:58:45;;;;;;;;;;;;;;;5.55;95.03;100987.25;5033176;28;20033;-66
2020/12/05 09:01:12;;;;;;;142.90;48.22;;;;;;;5.61;95.13;101000.44;5032008;28;19963;-68
2020/12/05 09:03:39;;;;;;;149.73;47.50;;;;;;;5.68;94.72;100999.16;5029901;28;20041;-67
2020/12/05 09:06:05;;;;;;;137.13;47.45;;;;;;;5.76;94.30;100994.56;5032064;28;20064;-67
2020/12/05 09:08:31;;;;;;;137.15;47.17;;;;;;;5.73;94.13;100985.00;5032241;28;20054;-67
2020/12/05 09:10:56;;;;;;;143.90;48.25;;;;;;;5.84;94.00;100985.69;5031980;28;20061;-68
2020/12/05 09:13:23;;;;;;;139.90;47.40;;;;;;;5.85;93.96;100973.78;5031819;28;20033;-68
2020/12/05 09:16:02;;;;;;;146.95;56.38;;;;;;;5.97;93.70;100977.13;5031865;28;20025;-66
2020/12/05 09:18:46;;;;;;;130.15;43.75;;;;;;;5.98;93.26;100987.50;5031964;28;20030;-67
2020/12/05 09:21:18;;;;;;;135.63;47.28;;;;;;;6.00;93.25;100977.34;5031962;28;20040;-67
2020/12/05 09:23:44;;;;;;;126.45;44.53;;;;;;;5.94;93.34;100975.25;5031603;28;20034;-70
2020/12/05 09:26:10;;;;;;;137.35;46.63;;;;;;;6.05;93.34;100977.63;5031423;28;20100;-67
2020/12/05 09:28:35;;;;;;;138.30;47.47;;;;;;;6.01;93.23;100948.34;5031624;28;20033;-67
2020/12/05 09:31:08;;;;;;;123.35;45.13;;;;;;;6.22;92.69;100974.44;5030210;28;20029;-66
2020/12/05 09:33:35;;;;;;;145.63;48.03;;;;;;;6.06;92.98;100943.53;5032020;28;20033;-67
2020/12/05 09:36:01;;;;;;;131.60;46.65;;;;;;;6.27;92.99;100970.50;5031132;28;20033;-66
2020/12/05 09:38:26;;;;;;;150.65;50.42;;;;;;;6.35;92.68;100968.41;5031689;28;20481;-68
2020/12/05 09:40:52;;;;;;;149.60;54.05;;;;;;;6.44;92.63;100968.09;5031207;28;20029;-67
2020/12/05 09:43:18;;;;;;;157.75;65.40;;;;;;;6.54;92.29;100975.56;5031581;28;20034;-68
2020/12/05 09:45:43;;;;;;;144.27;50.50;;;;;;;6.54;91.82;100947.34;5031421;28;20017;-68
2020/12/05 09:48:09;;;;;;;143.68;50.20;;;;;;;6.69;91.57;100967.91;5031580;28;20026;-67
2020/12/05 09:50:35;;;;;;;140.82;50.53;;;;;;;6.79;91.01;100977.03;5030796;28;20033;-70
2020/12/05 09:53:00;;;;;;;133.55;50.15;;;;;;;6.79;90.62;100966.78;5030562;28;20025;-67
2020/12/05 09:55:27;;;;;;;137.27;53.33;;;;;;;6.86;90.73;100966.34;5030581;28;20477;-68
2020/12/05 09:57:52;;;;;;;129.45;49.35;;;;;;;6.86;89.97;100962.91;5030877;28;20022;-67
2020/12/05 10:00:18;;;;;;;141.98;49.72;;;;;;;6.83;90.34;100960.16;5031555;28;20025;-68
2020/12/05 10:02:44;;;;;;;136.25;49.63;;;;;;;6.90;90.26;100957.16;5035039;28;20021;-69
2020/12/05 10:05:11;;;;;;;161.57;56.80;;;;;;;6.95;90.23;100948.03;5035037;28;20037;-67
2020/12/05 10:07:40;;;;;;;153.70;54.35;;;;;;;6.92;90.09;100950.44;5034857;28;20042;-67
2020/12/05 10:10:07;;;;;;;144.25;51.78;;;;;;;6.93;90.21;100967.63;5032004;28;20604;-70
2020/12/05 10:12:33;;;;;;;162.13;57.20;;;;;;;6.80;89.93;100935.19;5034686;28;20022;-67
2020/12/05 10:14:59;;;;;;;177.40;64.28;;;;;;;7.07;89.95;100961.59;5032928;28;20029;-67
2020/12/05 10:17:25;;;;;;;156.32;53.60;;;;;;;7.17;89.74;100964.72;5033801;28;20056;-67
2020/12/05 10:19:51;;;;;;;156.43;55.42;;;;;;;7.17;90.27;100955.34;5029780;28;20053;-67
2020/12/05 10:22:16;;;;;;;151.80;54.97;;;;;;;7.22;89.61;100955.63;5033171;28;20031;-67
2020/12/05 10:24:42;;;;;;;151.40;56.55;;;;;;;7.18;89.73;100936.56;5027617;28;20044;-66
2020/12/05 10:27:07;;;;;;;149.68;58.90;;;;;;;7.29;89.61;100953.47;5034614;28;20026;-69
2020/12/05 10:29:33;;;;;;;155.65;55.92;;;;;;;7.29;89.41;100944.91;5034564;28;20043;-68
2020/12/05 10:31:58;;;;;;;155.80;58.78;;;;;;;7.29;89.63;100943.22;5034703;28;20029;-67
2020/12/05 10:34:24;;;;;;;156.70;60.80;;;;;;;7.42;89.38;100936.22;5034454;28;20033;-66
2020/12/05 10:36:49;;;;;;;147.13;58.33;;;;;;;7.65;89.37;100939.19;5034701;28;20022;-67
2020/12/05 10:39:15;;;;;;;140.88;54.17;;;;;;;7.63;88.92;100908.28;5034073;28;20037;-69
2020/12/05 10:41:41;;;;;;;134.85;56.13;;;;;;;7.64;88.79;100896.31;5034543;28;20029;-70
2020/12/05 10:44:08;;;;;;;144.50;58.70;;;;;;;7.96;88.46;100935.75;5034483;28;20021;-69
2020/12/05 10:46:40;;;;;;;129.27;54.55;;;;;;;7.89;87.27;100894.28;5034330;28;20027;-66
2020/12/05 10:49:05;;;;;;;117.50;50.00;;;;;;;8.12;87.56;100901.50;5032722;28;20017;-68
2020/12/05 10:51:31;;;;;;;120.47;50.90;;;;;;;8.16;86.80;100911.13;5034336;28;20033;-66
2020/12/05 10:53:56;;;;;;;126.95;53.65;;;;;;;8.21;86.93;100925.13;5033819;28;20037;-67
2020/12/05 10:56:25;;;;;;;122.35;53.60;;;;;;;8.20;87.41;100919.09;5034224;28;20021;-69
2020/12/05 10:58:51;;;;;;;120.90;52.85;;;;;;;8.28;86.97;100918.63;5034105;28;20036;-67
2020/12/05 11:01:16;;;;;;;122.03;53.22;;;;;;;8.36;86.83;100919.91;5033899;28;20408;-67
2020/12/05 11:03:41;;;;;;;126.88;55.70;;;;;;;8.44;86.89;100918.63;5034192;28;20087;-66
2020/12/05 11:06:07;;;;;;;122.32;52.40;;;;;;;8.45;86.72;100892.09;5034079;28;20025;-68
2020/12/05 11:08:33;;;;;;;117.00;53.08;;;;;;;8.65;86.41;100920.56;5033604;28;20119;-66
2020/12/05 11:10:59;;;;;;;105.60;50.13;;;;;;;8.57;85.37;100885.06;5034140;28;20476;-69
2020/12/05 11:13:24;;;;;;;105.97;50.60;;;;;;;8.82;85.86;100913.72;5033779;28;20080;-68
2020/12/05 11:15:50;;;;;;;142.50;78.40;;;;;;;8.80;85.38;100907.63;5034037;28;20053;-67